aviador You're here:

KBIL Decoded Metar

BILLINGS in MT, USA
Report Time2017-08-16 14:53:00
UTC Time2017-08-16 15:06:02
Flight Rules vfr VFR
Wind230° at 10 kt
W.Decomp.*RWY 25: 8.3 kt HW 5.6 kt LCW
RWY 28: 4.4 kt HW 9 kt LCW
W.Rank230° ranks 2
Current wind is below 230° avg. (10.3)
Visibility9999 m
Phenomena:N/A
Clouds:Few 110 Hf
Expected CloudBase > 3,600 ft AGL from Temp-Dew spread
CeilingNone
Temp17°C (ISA +9)
Dew Point08°C (56% RH)
AAT13.0°C
QNH1016 hPa
Density Alt4,695 ft
Elevation3,579 ft
Report Wrong Elevation
Raw Report
METAR KBIL 161453Z 23010KT 10SM FEW110 17/08 A3001 RMK AO2 SLP135 T01720083
53006=

Extra information for KBIL:More info

Metar Taf Metar & Taf Last 4 Metars F.Rules Stats Wind Profile Meteogram Temp Stats Airport Information Weather charts Add Link Nearby VenuesMetar ALERT Operation Metar Decoded Social comments

AIRNAV info for KBIL